createdAt,value
2022-08-27T00:02:01.766Z,100694.00
2022-08-27T00:07:02.306Z,100696.00
2022-08-27T00:12:02.646Z,100698.00
2022-08-27T00:17:02.721Z,100698.00
2022-08-27T00:22:02.787Z,100692.00
2022-08-27T00:27:02.733Z,100686.00
2022-08-27T00:32:02.875Z,100684.00
2022-08-27T00:37:03.174Z,100683.00
2022-08-27T00:42:02.677Z,100683.00
2022-08-27T00:47:02.715Z,100683.00
2022-08-27T00:52:03.021Z,100679.00
2022-08-27T00:57:02.844Z,100677.00
2022-08-27T01:02:21.262Z,100683.00
2022-08-27T01:07:22.248Z,100688.00
2022-08-27T01:12:22.264Z,100690.00
2022-08-27T01:17:24.425Z,100690.00
2022-08-27T01:22:24.769Z,100696.00
2022-08-27T01:27:24.810Z,100692.00
2022-08-27T01:32:25.019Z,100692.00
2022-08-27T01:37:25.089Z,100690.00
2022-08-27T01:42:24.805Z,100684.00
2022-08-27T01:47:24.746Z,100681.00
2022-08-27T01:52:26.720Z,100683.00
2022-08-27T01:57:26.833Z,100681.00
2022-08-27T02:02:26.896Z,100681.00
2022-08-27T02:07:26.723Z,100679.00
2022-08-27T02:12:26.772Z,100679.00
2022-08-27T02:17:26.815Z,100679.00
2022-08-27T02:22:26.880Z,100675.00
2022-08-27T02:27:26.845Z,100673.00
2022-08-27T02:32:32.368Z,100669.00
2022-08-27T02:37:29.841Z,100667.00
2022-08-27T02:42:30.042Z,100669.00
2022-08-27T02:47:29.842Z,100665.00
2022-08-27T02:52:29.798Z,100663.00
2022-08-27T02:57:31.015Z,100661.00
2022-08-27T03:02:33.021Z,100659.00
2022-08-27T03:07:32.803Z,100659.00
2022-08-27T03:12:33.886Z,100659.00
2022-08-27T03:17:52.149Z,100663.00
2022-08-27T03:22:51.790Z,100665.00
2022-08-27T03:27:51.888Z,100667.00
2022-08-27T03:32:51.808Z,100667.00
2022-08-27T03:37:51.816Z,100663.00
2022-08-27T03:42:51.812Z,100663.00
2022-08-27T03:47:52.121Z,100663.00
2022-08-27T03:52:51.857Z,100663.00
2022-08-27T03:57:52.912Z,100657.00
2022-08-27T04:02:52.998Z,100659.00
2022-08-27T04:07:52.885Z,100661.00
2022-08-27T04:12:52.945Z,100661.00
2022-08-27T04:17:54.860Z,100667.00
2022-08-27T04:22:54.936Z,100669.00
2022-08-27T04:27:54.920Z,100669.00
2022-08-27T04:32:55.518Z,100677.00
2022-08-27T04:37:57.092Z,100679.00
2022-08-27T04:42:56.920Z,100683.00
2022-08-27T04:47:56.954Z,100686.00
2022-08-27T04:52:58.835Z,100686.00
2022-08-27T04:57:59.241Z,100688.00
2022-08-27T05:02:58.904Z,100692.00
2022-08-27T05:07:58.940Z,100694.00
2022-08-27T05:13:00.027Z,100696.00
2022-08-27T05:18:00.336Z,100700.00
2022-08-27T05:22:59.972Z,100702.00
2022-08-27T05:27:59.989Z,100708.00
2022-08-27T05:33:00.055Z,100708.00
2022-08-27T05:38:00.140Z,100708.00
2022-08-27T05:42:59.909Z,100706.00
2022-08-27T05:47:59.985Z,100712.00
2022-08-27T05:53:00.005Z,100712.00
2022-08-27T05:57:59.911Z,100714.00
2022-08-27T06:03:00.009Z,100716.00
2022-08-27T06:07:59.906Z,100716.00
2022-08-27T06:13:00.024Z,100712.00
2022-08-27T06:17:59.927Z,100716.00
2022-08-27T06:23:00.297Z,100718.00
2022-08-27T06:28:01.932Z,100720.00
2022-08-27T06:33:02.021Z,100722.00
2022-08-27T06:38:02.061Z,100726.00
2022-08-27T06:43:01.987Z,100731.00
2022-08-27T06:48:02.013Z,100733.00
2022-08-27T06:53:02.111Z,100737.00
2022-08-27T06:58:01.983Z,100733.00
2022-08-27T07:03:04.004Z,100731.00
2022-08-27T07:08:04.062Z,100730.00
2022-08-27T07:13:04.136Z,100730.00
2022-08-27T07:18:04.872Z,100730.00
2022-08-27T07:23:10.542Z,100728.00
2022-08-27T07:28:08.086Z,100726.00
2022-08-27T07:33:08.591Z,100728.00
2022-08-27T07:38:09.114Z,100728.00
2022-08-27T07:43:27.291Z,100730.00
2022-08-27T07:48:27.491Z,100733.00
2022-08-27T07:53:27.027Z,100735.00
2022-08-27T07:58:27.105Z,100733.00
2022-08-27T08:03:27.589Z,100737.00
2022-08-27T08:08:28.005Z,100737.00
2022-08-27T08:13:28.019Z,100739.00
2022-08-27T08:18:28.323Z,100739.00
2022-08-27T08:23:28.161Z,100743.00
2022-08-27T08:28:28.661Z,100745.00
2022-08-27T08:33:31.089Z,100747.00
2022-08-27T08:38:31.407Z,100751.00
2022-08-27T08:43:31.021Z,100753.00
2022-08-27T08:48:31.142Z,100751.00
2022-08-27T08:53:31.029Z,100759.00
2022-08-27T08:58:31.076Z,100759.00
2022-08-27T09:03:31.208Z,100761.00
2022-08-27T09:08:38.949Z,100763.00
2022-08-27T09:13:36.164Z,100763.00
2022-08-27T09:18:36.207Z,100769.00
2022-08-27T09:23:36.089Z,100769.00
2022-08-27T09:28:54.476Z,100765.00
2022-08-27T09:33:57.015Z,100769.00
2022-08-27T09:38:58.184Z,100767.00
2022-08-27T09:43:58.101Z,100763.00
2022-08-27T09:48:58.092Z,100769.00
2022-08-27T09:53:58.088Z,100769.00
2022-08-27T09:58:58.170Z,100771.00
2022-08-27T10:03:59.079Z,100771.00
2022-08-27T10:09:05.082Z,100775.00
2022-08-27T10:14:03.220Z,100775.00
2022-08-27T10:19:03.152Z,100777.00
2022-08-27T10:24:03.157Z,100775.00
2022-08-27T10:29:03.169Z,100777.00
2022-08-27T10:34:03.519Z,100775.00
2022-08-27T10:39:03.424Z,100777.00
2022-08-27T10:44:03.158Z,100775.00
2022-08-27T10:49:03.165Z,100777.00
2022-08-27T10:54:03.201Z,100775.00
2022-08-27T10:59:03.312Z,100775.00
2022-08-27T11:04:03.242Z,100769.00
2022-08-27T11:09:07.521Z,100773.00
2022-08-27T11:14:05.388Z,100773.00
2022-08-27T11:19:05.205Z,100775.00
2022-08-27T11:24:05.206Z,100773.00
2022-08-27T11:29:05.242Z,100767.00
2022-08-27T11:34:07.501Z,100769.00
2022-08-27T11:39:07.250Z,100765.00
2022-08-27T11:44:07.200Z,100763.00
2022-08-27T11:49:07.224Z,100759.00
2022-08-27T11:54:07.271Z,100757.00
2022-08-27T11:59:07.192Z,100761.00
2022-08-27T12:04:07.729Z,100759.00
2022-08-27T12:09:08.215Z,100757.00
2022-08-27T12:14:08.391Z,100755.00
2022-08-27T12:19:08.564Z,100753.00
2022-08-27T12:24:08.201Z,100749.00
2022-08-27T12:29:08.230Z,100749.00
2022-08-27T12:34:10.388Z,100747.00
2022-08-27T12:39:10.237Z,100749.00
2022-08-27T12:44:10.224Z,100747.00
2022-08-27T12:49:39.311Z,100743.00
2022-08-27T12:54:15.225Z,100737.00
2022-08-27T12:59:15.551Z,100737.00
2022-08-27T13:04:15.322Z,100731.00
2022-08-27T13:09:15.234Z,100730.00
2022-08-27T13:14:15.270Z,100724.00
2022-08-27T13:19:15.537Z,100716.00
2022-08-27T13:24:15.266Z,100714.00
2022-08-27T13:29:15.308Z,100712.00
2022-08-27T13:34:15.345Z,100710.00
2022-08-27T13:39:15.383Z,100708.00
2022-08-27T13:44:16.127Z,100706.00
2022-08-27T13:49:16.968Z,100706.00
2022-08-27T13:54:17.331Z,100702.00
2022-08-27T13:59:17.299Z,100704.00
2022-08-27T14:04:17.479Z,100700.00
2022-08-27T14:09:17.341Z,100698.00
2022-08-27T14:14:17.631Z,100698.00
2022-08-27T14:19:17.429Z,100698.00
2022-08-27T14:24:17.547Z,100698.00
2022-08-27T14:29:17.742Z,100700.00
2022-08-27T14:34:17.511Z,100702.00
2022-08-27T14:39:17.352Z,100698.00
2022-08-27T14:44:19.329Z,100698.00
2022-08-27T14:49:19.368Z,100696.00
2022-08-27T14:54:19.403Z,100696.00
2022-08-27T14:59:20.148Z,100700.00
2022-08-27T15:04:20.504Z,100704.00
2022-08-27T15:09:23.199Z,100702.00
2022-08-27T15:14:23.463Z,100704.00
2022-08-27T15:19:23.472Z,100704.00
2022-08-27T15:24:24.118Z,100702.00
2022-08-27T15:29:24.464Z,100706.00
2022-08-27T15:34:24.493Z,100706.00
2022-08-27T15:39:24.381Z,100706.00
2022-08-27T15:44:24.411Z,100706.00
2022-08-27T15:49:24.417Z,100704.00
2022-08-27T15:54:24.428Z,100702.00
2022-08-27T15:59:24.516Z,100700.00
2022-08-27T16:04:24.597Z,100704.00
2022-08-27T16:09:24.455Z,100702.00
2022-08-27T16:14:24.493Z,100702.00
2022-08-27T16:19:24.529Z,100700.00
2022-08-27T16:24:24.458Z,100700.00
2022-08-27T16:29:24.450Z,100698.00
2022-08-27T16:34:24.676Z,100698.00
2022-08-27T16:39:25.801Z,100698.00
2022-08-27T16:44:26.491Z,100700.00
2022-08-27T16:49:44.723Z,100698.00
2022-08-27T16:54:45.573Z,100696.00
2022-08-27T16:59:45.511Z,100696.00
2022-08-27T17:04:48.013Z,100694.00
2022-08-27T17:09:47.495Z,100692.00
2022-08-27T17:14:47.478Z,100694.00
2022-08-27T17:19:47.480Z,100690.00
2022-08-27T17:24:47.483Z,100692.00
2022-08-27T17:29:47.500Z,100694.00
2022-08-27T17:34:47.574Z,100698.00
2022-08-27T17:39:48.100Z,100698.00
2022-08-27T17:44:48.532Z,100704.00
2022-08-27T17:49:48.496Z,100706.00
2022-08-27T17:54:50.395Z,100704.00
2022-08-27T17:59:50.510Z,100712.00
2022-08-27T18:04:50.680Z,100714.00
2022-08-27T18:09:50.648Z,100718.00
2022-08-27T18:14:50.508Z,100722.00
2022-08-27T18:19:51.265Z,100726.00
2022-08-27T18:24:51.521Z,100726.00
2022-08-27T18:29:51.540Z,100728.00
2022-08-27T18:34:53.584Z,100731.00
2022-08-27T18:39:53.671Z,100733.00
2022-08-27T18:44:53.603Z,100739.00
2022-08-27T18:49:53.536Z,100747.00
2022-08-27T18:54:53.778Z,100749.00
2022-08-27T18:59:53.622Z,100749.00
2022-08-27T19:04:53.641Z,100751.00
2022-08-27T19:09:53.620Z,100755.00
2022-08-27T19:14:53.608Z,100759.00
2022-08-27T19:19:53.658Z,100763.00
2022-08-27T19:24:53.615Z,100765.00
2022-08-27T19:29:53.582Z,100769.00
2022-08-27T19:34:54.354Z,100773.00
2022-08-27T19:39:57.735Z,100778.00
2022-08-27T19:44:57.649Z,100778.00
2022-08-27T19:49:57.667Z,100778.00
2022-08-27T19:55:13.211Z,100777.00
2022-08-27T19:59:59.798Z,100777.00
2022-08-27T20:05:16.794Z,100777.00
2022-08-27T20:10:01.683Z,100780.00
2022-08-27T20:15:03.665Z,100780.00
2022-08-27T20:20:03.770Z,100780.00
2022-08-27T20:25:03.631Z,100775.00
2022-08-27T20:30:04.307Z,100777.00
2022-08-27T20:35:04.740Z,100782.00
2022-08-27T20:40:04.836Z,100784.00
2022-08-27T20:45:07.536Z,100786.00
2022-08-27T20:50:06.688Z,100788.00
2022-08-27T20:55:06.717Z,100801.00
2022-08-27T21:00:21.955Z,100803.00
2022-08-27T21:05:21.792Z,100801.00
2022-08-27T21:10:21.666Z,100801.00
2022-08-27T21:15:21.705Z,100803.00
2022-08-27T21:20:21.759Z,100805.00
2022-08-27T21:25:23.546Z,100809.00
2022-08-27T21:30:24.196Z,100809.00
2022-08-27T21:35:25.657Z,100811.00
2022-08-27T21:40:27.610Z,100815.00
2022-08-27T21:45:27.761Z,100819.00
2022-08-27T21:50:27.667Z,100820.00
2022-08-27T21:55:27.860Z,100819.00
2022-08-27T22:00:27.792Z,100820.00
2022-08-27T22:05:27.771Z,100822.00
2022-08-27T22:10:27.784Z,100826.00
2022-08-27T22:15:29.819Z,100824.00
2022-08-27T22:20:29.821Z,100822.00
2022-08-27T22:25:29.785Z,100822.00
2022-08-27T22:30:29.780Z,100824.00
2022-08-27T22:35:29.829Z,100824.00
2022-08-27T22:40:29.854Z,100824.00
2022-08-27T22:45:30.742Z,100822.00
2022-08-27T22:50:30.787Z,100824.00
2022-08-27T22:55:30.723Z,100824.00
2022-08-27T23:00:30.721Z,100824.00
2022-08-27T23:05:40.482Z,100820.00
2022-08-27T23:10:34.809Z,100819.00
2022-08-27T23:15:34.742Z,100817.00
2022-08-27T23:20:34.791Z,100815.00
2022-08-27T23:25:53.113Z,100817.00
2022-08-27T23:30:52.838Z,100819.00
2022-08-27T23:35:52.902Z,100819.00
2022-08-27T23:40:52.942Z,100817.00
2022-08-27T23:45:52.769Z,100819.00
2022-08-27T23:50:52.765Z,100813.00
2022-08-27T23:55:52.853Z,100811.00
